This is the latest recevied weather packets stored in our database for station/object EA7HQL-10. If no packets are shown the sender has not sent any weather packets the latest 10 day(s).
| Time | Temp. | Humidity | Pressure | Rain* | Wind** | Luminosity | Snow |
|---|---|---|---|---|---|---|---|
| 1777628310 | 21.11° C | 73% | 1017.4 hPa | 0 mm | - | - | - |
| 1777628016 | 20.56° C | 75% | 1017.4 hPa | 0 mm | - | - | - |
| 1777627756 | 20.56° C | 77% | 1017.3 hPa | 0 mm | - | - | - |
| 1777627461 | 20.56° C | 76% | 1017.3 hPa | 0 mm | - | - | - |
| 1777627220 | 20.56° C | 77% | 1017.2 hPa | 0 mm | - | - | - |
| 1777626978 | 20° C | 78% | 1017.3 hPa | 0 mm | - | - | - |
| 1777626691 | 19.44° C | 79% | 1017.3 hPa | 0 mm | - | - | - |
| 1777626426 | 19.44° C | 78% | 1017.3 hPa | 0 mm | - | - | - |
| 1777626171 | 20.56° C | 76% | 1017 hPa | 0 mm | - | - | - |
| 1777625871 | 21.11° C | 73% | 1017.1 hPa | 0 mm | - | - | - |
| 1777625610 | 20° C | 75% | 1017.1 hPa | 0 mm | - | - | - |
| 1777625341 | 20° C | 74% | 1017.1 hPa | 0 mm | - | - | - |
| 1777625080 | 19.44° C | 76% | 1016.8 hPa | 0 mm | - | - | - |
| 1777624840 | 18.89° C | 77% | 1016.8 hPa | 0 mm | - | - | - |
| 1777624571 | 18.89° C | 77% | 1017 hPa | 0 mm | - | - | - |
| 1777624286 | 19.44° C | 77% | 1016.8 hPa | 0 mm | - | - | - |
| 1777624036 | 18.89° C | 78% | 1017.1 hPa | 0 mm | - | - | - |
| 1777623791 | 18.89° C | 78% | 1017.1 hPa | 0 mm | - | - | - |
| 1777623548 | 19.44° C | 76% | 1016.8 hPa | 0 mm | - | - | - |
| 1777623256 | 19.44° C | 77% | 1016.6 hPa | 0 mm | - | - | - |
| 1777623006 | 19.44° C | 76% | 1017 hPa | 0 mm | - | - | - |
| 1777622706 | 19.44° C | 76% | 1016.7 hPa | 0 mm | - | - | - |
| 1777622416 | 19.44° C | 76% | 1016.5 hPa | 0 mm | - | - | - |
| 1777622166 | 18.89° C | 77% | 1016.7 hPa | 0 mm | - | - | - |
| 1777621906 | 18.89° C | 76% | 1016.4 hPa | 0 mm | - | - | - |
* Rain latest hour (hover to see other rain measurements)
** Current wind speed in m/s (hover to see current wind gust speed)